.
WxDataArchive / Data Records for 2008-08-23
2008-08-22 August 2008 2008-08-24

Data Records for Saturday, 23 August 2008

Time	Temp	Chill	HIndex	Humid	Dewpt	 Wind 	HiWind	WindDir	Rain 	Barom 
-----	----	-----	------	-----	-----	------	------	-------	-----	----- 
00:00	72.1	72.1	72.1	87	68.0	0	0	---	0.00	30.065 
00:05	72.1	72.1	72.1	86	67.7	0	0	---	0.00	30.062 
00:10	72.0	72.0	72.0	86	67.6	0	0	---	0.00	30.062 
00:15	72.0	72.0	72.0	86	67.6	0	0	---	0.00	30.062 
00:20	71.8	71.8	71.8	87	67.7	0	0	---	0.00	30.062 
00:25	71.6	71.6	71.6	87	67.5	0	0	---	0.00	30.062 
00:30	71.6	71.6	71.6	87	67.5	0	0	---	0.00	30.060 
00:35	71.3	71.3	71.3	87	67.2	0	0	---	0.00	30.060 
00:40	71.1	71.1	71.1	88	67.4	0	0	---	0.00	30.060 
00:45	71.1	71.1	71.1	88	67.4	0	0	---	0.00	30.056 
00:50	70.9	70.9	70.9	88	67.2	0	0	---	0.00	30.053 
00:55	70.8	70.8	70.8	89	67.4	0	0	---	0.00	30.050 
01:00	70.6	70.6	70.6	89	67.2	0	0	---	0.00	30.049 
01:05	70.6	70.6	70.6	89	67.2	0	0	---	0.00	30.049 
01:10	70.4	70.4	70.4	89	67.0	0	0	---	0.00	30.047 
01:15	70.4	70.4	70.4	89	67.0	0	0	---	0.00	30.049 
01:20	70.3	70.3	70.3	89	66.9	0	0	---	0.00	30.048 
01:25	70.3	70.3	70.3	89	66.9	0	0	---	0.00	30.047 
01:30	70.1	70.1	70.1	89	66.7	0	0	---	0.00	30.043 
01:35	69.9	69.9	69.9	90	66.8	0	0	---	0.00	30.041 
01:40	69.9	69.9	69.9	90	66.8	0	0	---	0.00	30.043 
01:45	69.8	69.8	69.8	90	66.7	0	0	---	0.00	30.044 
01:50	69.8	69.8	69.8	90	66.7	0	0	---	0.00	30.043 
01:55	69.6	69.6	69.6	91	66.8	0	0	---	0.00	30.043 
02:00	69.6	69.6	69.6	91	66.8	0	0	---	0.00	30.042 
02:05	69.4	69.4	69.4	91	66.7	0	0	---	0.00	30.039 
02:10	69.4	69.4	69.4	91	66.7	0	0	---	0.00	30.040 
02:15	69.3	69.3	69.3	91	66.6	0	0	---	0.00	30.040 
02:20	69.3	69.3	69.3	91	66.6	0	0	---	0.00	30.040 
02:25	69.1	69.1	69.1	92	66.7	0	0	---	0.00	30.041 
02:30	69.1	69.1	69.1	92	66.7	0	0	---	0.00	30.039 
02:35	68.9	68.9	68.9	92	66.5	0	0	---	0.00	30.039 
02:40	68.9	68.9	68.9	92	66.5	0	0	---	0.00	30.041 
02:45	68.8	68.8	68.8	92	66.4	0	0	---	0.00	30.044 
02:50	68.8	68.8	68.8	92	66.4	0	0	---	0.00	30.043 
02:55	68.8	68.8	68.8	92	66.4	0	0	---	0.00	30.043 
03:00	68.6	68.6	68.6	92	66.2	0	0	---	0.00	30.042 
03:05	68.4	68.4	68.4	92	66.0	0	0	---	0.00	30.042 
03:10	68.4	68.4	68.4	92	66.0	0	0	---	0.00	30.042 
03:15	68.3	68.3	68.3	93	66.2	0	0	---	0.00	30.040 
03:20	68.3	68.3	68.3	93	66.2	0	0	---	0.00	30.038 
03:25	68.3	68.3	68.3	93	66.2	0	0	---	0.00	30.038 
03:30	68.3	68.3	68.3	93	66.2	0	0	---	0.00	30.038 
03:35	68.1	68.1	68.1	93	66.0	0	0	---	0.00	30.038 
03:40	68.1	68.1	68.1	93	66.0	0	0	---	0.00	30.039 
03:45	68.1	68.1	68.1	93	66.0	0	0	---	0.00	30.038 
03:50	68.1	68.1	68.1	93	66.0	0	0	---	0.00	30.038 
03:55	68.1	68.1	68.1	94	66.3	0	0	---	0.00	30.038 
04:00	68.1	68.1	68.1	94	66.3	0	0	---	0.00	30.038 
04:05	68.1	68.1	68.1	94	66.3	0	0	---	0.00	30.038 
04:10	68.1	68.1	68.1	94	66.3	0	0	---	0.00	30.040 
04:15	68.1	68.1	68.1	94	66.3	0	0	---	0.00	30.041 
04:20	68.1	68.1	68.1	94	66.3	0	0	---	0.00	30.039 
04:25	68.1	68.1	68.1	94	66.3	0	0	---	0.00	30.040 
04:30	68.1	68.1	68.1	94	66.3	0	0	---	0.00	30.039 
04:35	67.9	67.9	67.9	94	66.1	0	0	---	0.00	30.039 
04:40	67.9	67.9	67.9	94	66.1	0	0	---	0.00	30.039 
04:45	67.8	67.8	67.8	94	66.0	0	0	---	0.00	30.039 
04:50	67.8	67.8	67.8	94	66.0	0	0	---	0.00	30.039 
04:55	67.8	67.8	67.8	94	66.0	0	0	---	0.00	30.039 
05:00	67.8	67.8	67.8	94	66.0	0	0	---	0.00	30.042 
05:05	67.8	67.8	67.8	94	66.0	0	0	---	0.00	30.043 
05:10	67.8	67.8	67.8	94	66.0	0	0	---	0.00	30.045 
05:15	67.8	67.8	67.8	94	66.0	0	0	---	0.00	30.043 
05:20	67.6	67.6	67.6	94	65.8	0	0	---	0.00	30.042 
05:25	67.6	67.6	67.6	94	65.8	0	0	---	0.00	30.042 
05:30	67.4	67.4	67.4	94	65.6	0	0	---	0.00	30.041 
05:35	67.4	67.4	67.4	94	65.6	0	0	---	0.00	30.042 
05:40	67.3	67.3	67.3	94	65.5	0	0	---	0.00	30.044 
05:45	67.3	67.3	67.3	94	65.5	0	0	---	0.00	30.043 
05:50	67.3	67.3	67.3	95	65.8	0	0	---	0.00	30.042 
05:55	67.3	67.3	67.3	94	65.5	0	0	---	0.00	30.042 
06:00	67.3	67.3	67.3	95	65.8	0	0	---	0.00	30.042 
06:05	67.1	67.1	67.1	95	65.6	0	0	---	0.00	30.044 
06:10	67.1	67.1	67.1	95	65.6	0	0	---	0.00	30.043 
06:15	67.1	67.1	67.1	95	65.6	0	0	---	0.00	30.049 
06:20	67.3	67.3	67.3	95	65.8	0	0	---	0.00	30.048 
06:25	67.3	67.3	67.3	95	65.8	0	0	---	0.00	30.046 
06:30	67.3	67.3	67.3	95	65.8	0	0	---	0.00	30.048 
06:35	67.4	67.4	67.4	95	65.9	0	0	---	0.00	30.046 
06:40	67.4	67.4	67.4	95	65.9	0	0	---	0.00	30.044 
06:45	67.6	67.6	67.6	95	66.1	0	0	---	0.00	30.042 
06:50	67.9	67.9	67.9	95	66.4	0	0	---	0.00	30.042 
06:55	68.3	68.3	68.3	95	66.8	0	0	---	0.00	30.041 
07:00	68.6	68.6	68.6	95	67.1	0	0	---	0.00	30.042 
07:05	68.9	68.9	68.9	95	67.4	0	0	---	0.00	30.044 
07:10	69.3	69.3	69.3	95	67.8	0	0	---	0.00	30.045 
07:15	69.8	69.8	69.8	95	68.3	0	0	---	0.00	30.045 
07:20	70.4	70.4	70.4	94	68.6	0	0	---	0.00	30.044 
07:25	71.1	71.1	71.1	92	68.7	0	1	270	0.00	30.043 
07:30	71.8	71.8	71.8	89	68.4	0	1	270	0.00	30.042 
07:35	72.3	72.3	72.3	85	67.5	0	1	270	0.00	30.043 
07:40	73.0	73.0	73.0	81	66.8	0	1	270	0.00	30.041 
07:45	73.9	73.9	73.9	79	67.0	0	0	---	0.00	30.042 
07:50	74.6	74.6	74.6	77	66.9	0	1	270	0.00	30.043 
07:55	75.1	75.1	76.4	74	66.2	0	1	270	0.00	30.043 
08:00	75.4	75.4	76.8	73	66.1	0	1	270	0.00	30.043 
08:05	76.0	76.0	77.5	72	66.3	0	2	270	0.00	30.047 
08:10	76.3	76.3	78.0	70	65.8	0	2	270	0.00	30.048 
08:15	76.5	76.5	78.2	70	66.0	0	3	68	0.00	30.045 
08:20	76.7	76.7	78.4	69	65.7	0	1	68	0.00	30.046 
08:25	77.0	77.0	78.8	68	65.6	0	2	68	0.00	30.045 
08:30	77.4	77.4	79.2	65	64.7	0	2	68	0.00	30.043 
08:35	77.7	77.7	79.5	65	65.0	0	2	68	0.00	30.040 
08:40	77.9	77.9	79.7	65	65.2	0	3	0	0.00	30.038 
08:45	78.5	78.5	80.3	62	64.4	1	3	90	0.00	30.039 
08:50	79.2	79.2	80.9	60	64.1	0	2	90	0.00	30.039 
08:55	79.8	79.8	81.4	58	63.7	1	3	90	0.00	30.039 
09:00	80.3	80.3	81.9	58	64.2	1	4	112	0.00	30.041 
09:05	80.7	80.7	82.4	58	64.5	1	2	112	0.00	30.044 
09:10	81.2	81.2	82.7	56	64.0	1	3	270	0.00	30.045 
09:15	81.4	81.4	82.8	55	63.7	1	4	248	0.00	30.045 
09:20	81.6	81.6	82.9	54	63.3	1	3	248	0.00	30.044 
09:25	82.0	82.0	83.6	55	64.2	1	4	0	0.00	30.045 
09:30	82.8	82.8	84.4	54	64.4	1	2	68	0.00	30.046 
09:35	83.4	83.4	84.8	52	63.9	1	3	68	0.00	30.047 
09:40	83.8	83.8	85.5	53	64.8	1	3	68	0.00	30.047 
09:45	84.1	84.1	85.7	52	64.5	1	4	68	0.00	30.048 
09:50	84.0	84.0	85.1	50	63.3	1	3	270	0.00	30.049 
09:55	83.6	83.6	84.8	51	63.5	1	3	270	0.00	30.049 
10:00	83.4	83.4	84.6	51	63.3	0	1	315	0.00	30.051 
10:05	83.4	83.4	84.6	51	63.3	0	2	248	0.00	30.054 
10:10	83.4	83.4	84.6	51	63.3	0	1	248	0.00	30.054 
10:15	83.4	83.4	84.2	49	62.2	0	2	248	0.00	30.058 
10:20	83.6	83.6	84.4	49	62.4	0	1	248	0.00	30.059 
10:25	84.0	84.0	85.1	50	63.3	0	1	248	0.00	30.056 
10:30	84.7	84.7	85.6	48	62.8	0	2	248	0.00	30.055 
10:35	85.7	85.7	87.4	50	64.9	1	3	248	0.00	30.056 
10:40	86.1	86.1	86.7	45	62.2	1	2	248	0.00	30.057 
10:45	86.3	86.3	86.7	44	61.8	1	3	248	0.00	30.053 
10:50	86.5	86.5	87.0	44	62.0	0	1	248	0.00	30.051 
10:55	87.2	87.2	87.4	42	61.3	1	3	248	0.00	30.050 
11:00	87.4	87.4	87.9	43	62.1	0	2	248	0.00	30.049 
11:05	87.6	87.6	87.6	41	60.9	1	2	248	0.00	30.048 
11:10	87.4	87.4	87.6	42	61.5	2	4	248	0.00	30.046 
11:15	87.4	87.4	87.6	42	61.5	1	2	248	0.00	30.039 
11:20	87.6	87.6	88.2	43	62.3	1	2	248	0.00	30.035 
11:25	87.8	87.8	88.5	43	62.5	1	3	248	0.00	30.034 
11:30	88.2	88.2	89.0	43	62.8	1	2	248	0.00	30.033 
11:35	88.8	88.8	89.9	43	63.4	0	1	248	0.00	30.032 
11:40	89.5	89.5	89.6	39	61.2	1	3	315	0.00	30.030 
11:45	89.7	89.7	89.9	39	61.4	1	3	248	0.00	30.026 
11:50	89.9	89.9	91.2	42	63.7	1	3	248	0.00	30.023 
11:55	90.3	90.3	90.8	39	61.9	1	3	248	0.00	30.021 
12:00	90.3	90.3	90.5	38	61.2	1	4	315	0.00	30.018 
12:05	90.3	90.3	90.5	38	61.2	2	4	270	0.00	30.019 
12:10	90.3	90.3	90.1	37	60.4	2	4	270	0.00	30.017 
12:15	90.3	90.3	90.5	38	61.2	2	5	270	0.00	30.015 
12:20	90.5	90.5	90.4	37	60.6	1	3	270	0.00	30.012 
12:25	90.5	90.5	90.4	37	60.6	2	4	270	0.00	30.005 
12:30	90.7	90.7	90.7	37	60.8	1	5	270	0.00	30.002 
12:35	91.0	91.0	91.5	38	61.8	2	4	248	0.00	30.000 
12:40	91.4	91.4	91.7	37	61.4	2	5	270	0.00	30.000 
12:45	91.8	91.8	92.7	38	62.5	1	3	22	0.00	30.000 
12:50	92.1	92.1	92.4	36	61.3	2	3	270	0.00	29.998 
12:55	92.3	92.3	93.4	38	63.0	1	3	270	0.00	29.994 
13:00	92.5	92.5	94.2	39	63.9	2	6	270	0.00	29.994 
13:05	92.7	92.7	93.3	36	61.8	1	4	270	0.00	29.992 
13:10	92.7	92.7	94.1	38	63.3	1	3	270	0.00	29.986 
13:15	92.9	92.9	93.6	36	62.0	1	4	270	0.00	29.985 
13:20	93.2	93.2	94.1	36	62.2	2	6	270	0.00	29.984 
13:25	92.9	92.9	93.6	36	62.0	1	4	270	0.00	29.984 
13:30	92.9	92.9	93.6	36	62.0	1	6	248	0.00	29.984 
13:35	92.7	92.7	92.9	35	61.0	2	5	270	0.00	29.983 
13:40	92.9	92.9	93.6	36	62.0	2	4	270	0.00	29.982 
13:45	92.5	92.5	92.3	34	60.0	2	7	270	0.00	29.983 
13:50	92.3	92.3	92.3	35	60.6	2	4	248	0.00	29.982 
13:55	92.7	92.7	92.5	34	60.2	1	4	270	0.00	29.980 
14:00	92.7	92.7	92.9	35	61.0	1	5	270	0.00	29.974 
14:05	93.2	93.2	94.1	36	62.2	2	5	270	0.00	29.973 
14:10	93.4	93.4	94.0	35	61.6	1	4	248	0.00	29.970 
14:15	93.4	93.4	93.2	33	59.9	2	5	248	0.00	29.971 
14:20	93.4	93.4	94.0	35	61.6	2	4	270	0.00	29.968 
14:25	93.2	93.2	93.7	35	61.4	2	5	270	0.00	29.967 
14:30	93.2	93.2	93.7	35	61.4	1	4	270	0.00	29.967 
14:35	93.2	93.2	93.7	35	61.4	2	4	248	0.00	29.963 
14:40	93.4	93.4	94.4	36	62.4	1	4	248	0.00	29.961 
14:45	93.2	93.2	93.7	35	61.4	2	6	248	0.00	29.958 
14:50	92.7	92.7	92.9	35	61.0	1	4	248	0.00	29.956 
14:55	91.8	91.8	92.3	37	61.8	2	4	270	0.00	29.956 
15:00	91.8	91.8	92.7	38	62.5	1	5	270	0.00	29.955 
15:05	92.5	92.5	93.8	38	63.1	1	3	270	0.00	29.954 
15:10	92.3	92.3	93.1	37	62.2	2	5	270	0.00	29.955 
15:15	92.1	92.1	92.8	37	62.0	2	6	248	0.00	29.954 
15:20	92.1	92.1	93.1	38	62.8	1	4	270	0.00	29.954 
15:25	91.8	91.8	93.1	39	63.3	1	4	292	0.00	29.953 
15:30	92.3	92.3	93.8	39	63.7	1	3	270	0.00	29.952 
15:35	92.7	92.7	93.3	36	61.8	2	5	248	0.00	29.951 
15:40	92.5	92.5	93.0	36	61.6	2	4	248	0.00	29.946 
15:45	92.3	92.3	93.1	37	62.2	1	4	248	0.00	29.944 
15:50	92.5	92.5	93.0	36	61.6	1	4	270	0.00	29.943 
15:55	92.3	92.3	92.7	36	61.4	2	5	270	0.00	29.940 
16:00	92.3	92.3	93.1	37	62.2	2	3	270	0.00	29.940 
16:05	92.3	92.3	93.1	37	62.2	2	5	270	0.00	29.939 
16:10	92.3	92.3	93.4	38	63.0	2	4	270	0.00	29.938 
16:15	92.1	92.1	93.1	38	62.8	2	5	270	0.00	29.938 
16:20	91.6	91.6	92.4	38	62.3	2	5	315	0.00	29.939 
16:25	91.2	91.2	92.1	39	62.7	1	6	248	0.00	29.939 
16:30	91.4	91.4	92.4	39	62.9	0	2	248	0.00	29.939 
16:35	91.4	91.4	92.4	39	62.9	1	3	270	0.00	29.938 
16:40	91.4	91.4	92.4	39	62.9	1	5	338	0.00	29.938 
16:45	91.4	91.4	92.4	39	62.9	1	3	248	0.00	29.938 
16:50	91.4	91.4	92.4	39	62.9	1	4	270	0.00	29.937 
16:55	91.2	91.2	92.1	39	62.7	2	4	270	0.00	29.937 
17:00	90.7	90.7	92.1	41	63.7	2	4	270	0.00	29.936 
17:05	90.5	90.5	91.8	41	63.5	1	4	248	0.00	29.934 
17:10	90.3	90.3	91.5	41	63.4	2	5	270	0.00	29.936 
17:15	89.9	89.9	91.6	43	64.4	1	3	248	0.00	29.935 
17:20	89.7	89.7	90.9	42	63.5	1	4	270	0.00	29.936 
17:25	89.5	89.5	91.0	43	64.0	1	3	270	0.00	29.938 
17:30	89.3	89.3	90.6	43	63.8	0	3	270	0.00	29.936 
17:35	89.0	89.0	90.5	44	64.2	1	3	270	0.00	29.937 
17:40	88.8	88.8	90.2	44	64.0	1	4	270	0.00	29.938 
17:45	88.8	88.8	90.2	44	64.0	1	4	270	0.00	29.939 
17:50	88.8	88.8	90.2	44	64.0	1	3	270	0.00	29.938 
17:55	88.8	88.8	90.6	45	64.7	1	4	270	0.00	29.935 
18:00	88.6	88.6	90.3	45	64.5	0	1	270	0.00	29.932 
18:05	88.4	88.4	90.3	46	64.9	1	2	248	0.00	29.933 
18:10	88.2	88.2	90.0	46	64.8	1	3	248	0.00	29.930 
18:15	88.0	88.0	90.0	47	65.2	1	2	248	0.00	29.928 
18:20	87.8	87.8	89.7	47	65.0	1	4	248	0.00	29.927 
18:25	87.6	87.6	89.4	47	64.8	1	2	248	0.00	29.928 
18:30	87.4	87.4	89.4	48	65.3	1	3	270	0.00	29.927 
18:35	87.2	87.2	89.4	49	65.7	1	3	270	0.00	29.930 
18:40	87.0	87.0	89.1	49	65.5	1	3	270	0.00	29.929 
18:45	86.7	86.7	88.6	49	65.2	0	2	270	0.00	29.933 
18:50	86.5	86.5	88.6	50	65.6	0	3	270	0.00	29.934 
18:55	86.3	86.3	88.3	50	65.4	1	3	270	0.00	29.935 
19:00	86.1	86.1	88.0	50	65.3	1	3	270	0.00	29.935 
19:05	85.9	85.9	88.0	51	65.6	0	3	270	0.00	29.929 
19:10	85.7	85.7	88.0	52	66.0	0	3	270	0.00	29.925 
19:15	85.3	85.3	87.4	52	65.6	1	2	270	0.00	29.927 
19:20	85.1	85.1	87.4	53	66.0	0	1	270	0.00	29.929 
19:25	84.9	84.9	87.3	54	66.4	1	2	270	0.00	29.929 
19:30	84.7	84.7	87.0	54	66.2	0	1	270	0.00	29.927 
19:35	84.3	84.3	86.7	55	66.3	0	1	270	0.00	29.928 
19:40	84.0	84.0	86.5	56	66.6	0	2	270	0.00	29.932 
19:45	83.8	83.8	86.4	57	66.9	0	1	270	0.00	29.930 
19:50	83.6	83.6	86.1	57	66.7	0	0	---	0.00	29.928 
19:55	83.4	83.4	86.1	58	67.0	0	0	---	0.00	29.928 
20:00	83.0	83.0	85.7	59	67.2	0	1	270	0.00	29.928 
20:05	82.6	82.6	85.3	60	67.3	0	0	---	0.00	29.925 
20:10	82.2	82.2	84.9	61	67.4	0	1	270	0.00	29.926 
20:15	82.0	82.0	84.8	62	67.7	0	0	---	0.00	29.927 
20:20	81.6	81.6	84.2	62	67.3	0	0	---	0.00	29.929 
20:25	81.2	81.2	83.8	63	67.4	0	0	---	0.00	29.931 
20:30	81.1	81.1	83.8	64	67.7	0	0	---	0.00	29.933 
20:35	80.7	80.7	83.4	65	67.8	0	0	---	0.00	29.934 
20:40	80.5	80.5	83.1	65	67.6	0	0	---	0.00	29.937 
20:45	80.1	80.1	82.5	65	67.2	0	0	---	0.00	29.938 
20:50	79.9	79.9	82.5	67	67.9	0	0	---	0.00	29.938 
20:55	79.6	79.6	82.0	67	67.7	0	0	---	0.00	29.940 
21:00	79.2	79.2	81.5	68	67.7	0	0	---	0.00	29.944 
21:05	79.0	79.0	81.3	69	67.9	0	0	---	0.00	29.943 
21:10	78.6	78.6	80.8	69	67.6	0	0	---	0.00	29.945 
21:15	78.5	78.5	80.7	70	67.9	0	0	---	0.00	29.941 
21:20	78.1	78.1	80.2	71	67.9	0	0	---	0.00	29.943 
21:25	77.9	77.9	79.9	72	68.1	0	0	---	0.00	29.946 
21:30	77.7	77.7	79.7	73	68.3	0	1	270	0.00	29.944 
21:35	77.4	77.4	79.3	73	68.0	0	0	---	0.00	29.945 
21:40	77.2	77.2	79.0	74	68.3	0	0	---	0.00	29.945 
21:45	77.0	77.0	78.7	75	68.5	0	0	---	0.00	29.945 
21:50	76.7	76.7	78.2	76	68.5	0	0	---	0.00	29.947 
21:55	76.5	76.5	78.0	76	68.4	0	0	---	0.00	29.946 
22:00	76.3	76.3	77.6	77	68.5	0	0	---	0.00	29.947 
22:05	76.1	76.1	77.4	77	68.3	0	0	---	0.00	29.946 
22:10	75.8	75.8	76.9	78	68.4	0	0	---	0.00	29.943 
22:15	75.6	75.6	76.5	79	68.6	0	0	---	0.00	29.939 
22:20	75.4	75.4	76.2	79	68.4	0	0	---	0.00	29.939 
22:25	75.3	75.3	76.0	80	68.7	0	0	---	0.00	29.940 
22:30	75.1	75.1	75.6	81	68.9	0	0	---	0.00	29.939 
22:35	74.9	74.9	74.9	81	68.7	0	0	---	0.00	29.936 
22:40	74.7	74.7	74.7	82	68.8	0	0	---	0.00	29.935 
22:45	74.7	74.7	74.7	82	68.8	0	0	---	0.00	29.935 
22:50	74.6	74.6	74.6	82	68.7	0	0	---	0.00	29.935 
22:55	74.4	74.4	74.4	83	68.9	0	0	---	0.00	29.938 
23:00	74.2	74.2	74.2	84	69.0	0	0	---	0.00	29.938 
23:05	74.0	74.0	74.0	84	68.8	0	0	---	0.00	29.934 
23:10	73.9	73.9	73.9	84	68.7	0	0	---	0.00	29.933 
23:15	73.7	73.7	73.7	84	68.6	0	0	---	0.00	29.932 
23:20	73.7	73.7	73.7	85	68.9	0	0	---	0.00	29.933 
23:25	73.5	73.5	73.5	85	68.7	0	0	---	0.00	29.932 
23:30	73.3	73.3	73.3	86	68.8	0	0	---	0.00	29.930 
23:35	73.3	73.3	73.3	86	68.8	0	0	---	0.00	29.931 
23:40	73.2	73.2	73.2	86	68.7	0	0	---	0.00	29.932 
23:45	73.2	73.2	73.2	87	69.1	0	0	---	0.00	29.932 
23:50	73.2	73.2	73.2	87	69.1	0	0	---	0.00	29.932 
23:55	73.0	73.0	73.0	87	68.9	0	0	---	0.00	29.935 

CoCoRaHS
IN-AL-39
A2 Web Hosting
Creative Commons License
GoDaddy
Look for:

loaded 2017-10-16 20:13:01 • last modified 2010-11-18 10:43:29
Privacy PolicyDisclaimer
• wx.awcolley.com is powered by PmWiki v.2002016 •
• all content (unless otherwise noted) © 2017 A W Colley